createdAt,value
2017-04-07T00:00:32.737Z,7.40
2017-04-07T00:01:38.819Z,7.40
2017-04-07T00:02:44.783Z,7.40
2017-04-07T00:03:50.840Z,7.30
2017-04-07T00:04:56.872Z,7.40
2017-04-07T00:06:02.919Z,7.40
2017-04-07T00:07:09.141Z,7.40
2017-04-07T00:08:15.110Z,7.40
2017-04-07T00:09:21.035Z,7.40
2017-04-07T00:10:27.194Z,7.40
2017-04-07T00:11:33.060Z,7.40
2017-04-07T00:12:39.311Z,7.40
2017-04-07T00:13:45.381Z,7.40
2017-04-07T00:14:51.426Z,7.40
2017-04-07T00:15:57.460Z,7.50
2017-04-07T00:17:03.369Z,7.50
2017-04-07T00:18:09.471Z,7.50
2017-04-07T00:19:16.203Z,7.40
2017-04-07T00:20:22.306Z,7.50
2017-04-07T00:21:28.382Z,7.50
2017-04-07T00:22:34.452Z,7.50
2017-04-07T00:23:40.624Z,7.50
2017-04-07T00:24:47.350Z,7.50
2017-04-07T00:25:53.447Z,7.50
2017-04-07T00:26:59.553Z,7.50
2017-04-07T00:28:05.604Z,7.60
2017-04-07T00:29:11.632Z,7.60
2017-04-07T00:30:17.845Z,7.60
2017-04-07T00:31:24.541Z,7.60
2017-04-07T00:32:30.741Z,7.60
2017-04-07T00:33:36.754Z,7.60
2017-04-07T00:34:42.721Z,7.60
2017-04-07T00:35:48.776Z,7.60
2017-04-07T00:36:54.837Z,7.60
2017-04-07T00:38:00.751Z,7.60
2017-04-07T00:39:07.679Z,7.60
2017-04-07T00:40:13.668Z,7.60
2017-04-07T00:41:19.804Z,7.60
2017-04-07T00:42:25.891Z,7.70
2017-04-07T00:43:32.040Z,7.70
2017-04-07T00:44:38.156Z,7.70
2017-04-07T00:45:44.852Z,7.70
2017-04-07T00:46:50.756Z,7.70
2017-04-07T00:47:56.730Z,7.70
2017-04-07T00:49:02.881Z,7.70
2017-04-07T00:50:08.949Z,7.70
2017-04-07T00:51:14.873Z,7.70
2017-04-07T00:52:20.946Z,7.80
2017-04-07T00:53:27.016Z,7.80
2017-04-07T00:54:32.995Z,7.80
2017-04-07T00:55:39.280Z,7.80
2017-04-07T00:56:45.253Z,7.80
2017-04-07T00:57:51.279Z,7.80
2017-04-07T00:58:57.467Z,7.80
2017-04-07T01:00:03.529Z,7.80
2017-04-07T01:01:10.420Z,7.80
2017-04-07T01:02:16.364Z,7.80
2017-04-07T01:03:22.431Z,7.80
2017-04-07T01:04:28.471Z,7.90
2017-04-07T01:05:34.645Z,7.90
2017-04-07T01:06:40.745Z,7.90
2017-04-07T01:07:47.626Z,7.80
2017-04-07T01:08:53.586Z,7.90
2017-04-07T01:09:59.685Z,7.90
2017-04-07T01:11:05.745Z,7.90
2017-04-07T01:12:11.807Z,7.90
2017-04-07T01:13:17.846Z,7.90
2017-04-07T01:14:23.851Z,7.90
2017-04-07T01:15:29.786Z,7.90
2017-04-07T01:16:35.719Z,7.90
2017-04-07T01:17:41.836Z,7.90
2017-04-07T01:18:47.816Z,7.90
2017-04-07T01:19:53.744Z,8.00
2017-04-07T01:20:59.916Z,8.00
2017-04-07T01:22:05.940Z,8.00
2017-04-07T01:23:12.012Z,8.00
2017-04-07T01:24:18.061Z,8.00
2017-04-07T01:25:24.033Z,8.00
2017-04-07T01:26:30.193Z,8.00
2017-04-07T01:27:36.141Z,8.00
2017-04-07T01:28:42.209Z,8.00
2017-04-07T01:29:48.204Z,8.00
2017-04-07T01:30:54.928Z,8.00
2017-04-07T01:32:01.047Z,7.90
2017-04-07T01:33:07.036Z,7.90
2017-04-07T01:34:13.697Z,8.00
2017-04-07T01:35:19.668Z,8.00
2017-04-07T01:36:26.473Z,8.00
2017-04-07T01:37:32.482Z,8.00
2017-04-07T01:38:38.509Z,8.00
2017-04-07T01:39:45.459Z,8.00
2017-04-07T01:40:51.469Z,8.00
2017-04-07T01:41:57.554Z,8.00
2017-04-07T01:43:03.552Z,8.00
2017-04-07T01:44:09.482Z,8.10
2017-04-07T01:45:16.562Z,8.10
2017-04-07T01:46:23.309Z,8.00
2017-04-07T01:47:29.376Z,8.00
2017-04-07T01:48:35.275Z,8.00
2017-04-07T01:49:41.228Z,8.10
2017-04-07T01:50:47.241Z,8.00
2017-04-07T01:51:53.241Z,8.10
2017-04-07T01:52:59.417Z,8.00
2017-04-07T01:54:05.428Z,8.10
2017-04-07T01:55:11.385Z,8.10
2017-04-07T01:56:17.386Z,8.00
2017-04-07T01:57:23.379Z,8.10
2017-04-07T01:58:29.673Z,8.10
2017-04-07T01:59:35.607Z,8.10
2017-04-07T02:00:41.711Z,8.10
2017-04-07T02:01:47.824Z,8.10
2017-04-07T02:02:54.512Z,8.10
2017-04-07T02:04:01.353Z,8.10
2017-04-07T02:05:07.293Z,8.10
2017-04-07T02:06:13.974Z,8.10
2017-04-07T02:07:21.041Z,8.00
2017-04-07T02:08:27.116Z,8.00
2017-04-07T02:09:33.120Z,8.10
2017-04-07T02:10:39.099Z,8.10
2017-04-07T02:11:45.221Z,8.10
2017-04-07T02:12:51.349Z,8.10
2017-04-07T02:13:57.390Z,8.10
2017-04-07T02:15:04.196Z,8.10
2017-04-07T02:16:10.175Z,8.00
2017-04-07T02:17:16.174Z,8.00
2017-04-07T02:18:22.919Z,8.10
2017-04-07T02:19:28.885Z,8.10
2017-04-07T02:20:35.598Z,8.10
2017-04-07T02:21:41.665Z,8.00
2017-04-07T02:22:47.864Z,8.10
2017-04-07T02:23:54.080Z,8.00
2017-04-07T02:25:00.892Z,8.10
2017-04-07T02:26:07.686Z,8.00
2017-04-07T02:27:13.838Z,8.00
2017-04-07T02:28:19.941Z,8.10
2017-04-07T02:29:26.072Z,8.00
2017-04-07T02:30:32.074Z,8.10
2017-04-07T02:31:38.942Z,8.10
2017-04-07T02:32:45.054Z,8.00
2017-04-07T02:33:51.060Z,8.00
2017-04-07T02:36:03.495Z,8.00
2017-04-07T02:37:10.319Z,8.10
2017-04-07T02:38:16.220Z,8.10
2017-04-07T02:39:22.219Z,8.10
2017-04-07T02:40:28.312Z,8.00
2017-04-07T02:41:34.310Z,8.00
2017-04-07T02:42:40.982Z,8.00
2017-04-07T02:43:46.960Z,8.10
2017-04-07T02:44:52.973Z,8.00
2017-04-07T02:45:58.951Z,8.00
2017-04-07T02:47:04.975Z,8.00
2017-04-07T02:48:10.985Z,8.00
2017-04-07T02:49:17.063Z,8.00
2017-04-07T02:50:23.093Z,8.00
2017-04-07T02:51:29.368Z,8.00
2017-04-07T02:52:36.049Z,8.00
2017-04-07T02:53:42.013Z,8.00
2017-04-07T02:54:48.029Z,8.00
2017-04-07T02:55:53.977Z,8.00
2017-04-07T02:57:00.128Z,8.00
2017-04-07T02:58:06.040Z,8.00
2017-04-07T02:59:12.111Z,8.00
2017-04-07T03:00:18.761Z,8.00
2017-04-07T03:01:24.744Z,8.00
2017-04-07T03:02:30.708Z,8.00
2017-04-07T03:03:37.000Z,8.00
2017-04-07T03:04:42.951Z,8.00
2017-04-07T03:05:48.943Z,8.00
2017-04-07T03:06:54.926Z,8.00
2017-04-07T03:08:00.976Z,8.00
2017-04-07T03:09:06.969Z,8.00
2017-04-07T03:10:13.049Z,7.90
2017-04-07T03:11:19.216Z,7.90
2017-04-07T03:12:25.270Z,7.90
2017-04-07T03:13:31.321Z,7.90
2017-04-07T03:14:38.096Z,7.90
2017-04-07T03:15:44.260Z,8.00
2017-04-07T03:16:50.449Z,8.00
2017-04-07T03:17:56.448Z,8.00
2017-04-07T03:19:02.475Z,7.90
2017-04-07T03:20:08.553Z,7.90
2017-04-07T03:21:14.630Z,7.90
2017-04-07T03:22:20.677Z,7.90
2017-04-07T03:23:27.405Z,7.90
2017-04-07T03:24:33.558Z,8.00
2017-04-07T03:25:39.669Z,8.00
2017-04-07T03:26:45.708Z,7.90
2017-04-07T03:27:51.660Z,8.00
2017-04-07T03:28:57.726Z,7.90
2017-04-07T03:30:03.766Z,7.90
2017-04-07T03:31:09.724Z,8.00
2017-04-07T03:32:15.751Z,8.00
2017-04-07T03:33:22.109Z,8.00
2017-04-07T03:34:28.222Z,8.00
2017-04-07T03:35:34.344Z,8.00
2017-04-07T03:36:40.794Z,8.00
2017-04-07T03:37:46.798Z,8.00
2017-04-07T03:38:52.837Z,8.00
2017-04-07T03:39:58.840Z,8.00
2017-04-07T03:41:05.505Z,8.00
2017-04-07T03:42:11.482Z,8.00
2017-04-07T03:43:17.746Z,8.00
2017-04-07T03:44:23.973Z,8.00
2017-04-07T03:45:29.868Z,8.10
2017-04-07T03:46:36.019Z,8.00
2017-04-07T03:47:42.181Z,8.00
2017-04-07T03:48:48.191Z,8.00
2017-04-07T03:49:54.421Z,8.00
2017-04-07T03:51:00.417Z,8.00
2017-04-07T03:52:07.852Z,8.10
2017-04-07T03:53:14.675Z,8.10
2017-04-07T03:54:20.743Z,8.10
2017-04-07T03:55:26.975Z,8.10
2017-04-07T03:56:33.119Z,8.10
2017-04-07T03:57:39.141Z,8.10
2017-04-07T03:58:45.341Z,8.10
2017-04-07T03:59:51.283Z,8.00
2017-04-07T04:00:57.192Z,8.10
2017-04-07T04:02:03.233Z,8.10
2017-04-07T04:03:09.268Z,8.10
2017-04-07T04:04:15.389Z,8.10
2017-04-07T04:05:22.995Z,8.10
2017-04-07T04:06:29.337Z,8.10
2017-04-07T04:07:35.428Z,8.10
2017-04-07T04:08:41.800Z,8.10
2017-04-07T04:09:48.785Z,8.10
2017-04-07T04:10:55.446Z,8.10
2017-04-07T04:12:01.707Z,8.10
2017-04-07T04:13:08.772Z,8.10
2017-04-07T04:14:18.618Z,8.10
2017-04-07T04:15:26.200Z,8.10
2017-04-07T04:16:35.713Z,8.10
2017-04-07T04:17:42.722Z,8.10
2017-04-07T04:18:50.095Z,8.10
2017-04-07T04:19:56.993Z,8.10
2017-04-07T04:21:04.163Z,8.10
2017-04-07T04:22:10.516Z,8.10
2017-04-07T04:23:17.379Z,8.10
2017-04-07T04:24:25.080Z,8.10
2017-04-07T04:25:33.236Z,8.10
2017-04-07T04:26:41.538Z,8.10
2017-04-07T04:27:49.376Z,8.10
2017-04-07T04:28:56.104Z,8.10
2017-04-07T04:30:03.398Z,8.10
2017-04-07T04:31:10.982Z,8.10
2017-04-07T04:32:17.117Z,8.10
2017-04-07T04:33:25.159Z,8.10
2017-04-07T04:34:31.880Z,8.10
2017-04-07T04:42:01.166Z,8.10
2017-04-07T04:46:11.624Z,8.10
2017-04-07T04:47:19.210Z,8.10
2017-04-07T04:48:25.320Z,8.10
2017-04-07T04:49:32.196Z,8.10
2017-04-07T04:50:39.691Z,8.20
2017-04-07T04:51:45.894Z,8.20
2017-04-07T04:52:54.944Z,8.20
2017-04-07T04:54:00.952Z,8.20
2017-04-07T04:55:07.203Z,8.20
2017-04-07T04:56:13.458Z,8.20
2017-04-07T04:57:19.491Z,8.20
2017-04-07T04:58:25.596Z,8.20
2017-04-07T04:59:32.453Z,8.20
2017-04-07T05:00:38.448Z,8.20
2017-04-07T05:01:44.739Z,8.20
2017-04-07T05:02:50.634Z,8.20
2017-04-07T05:03:56.854Z,8.20
2017-04-07T05:05:04.168Z,8.20
2017-04-07T05:07:16.931Z,8.30
2017-04-07T05:08:23.047Z,8.30
2017-04-07T05:09:29.442Z,8.30
2017-04-07T05:10:36.423Z,8.20
2017-04-07T05:11:42.396Z,8.30
2017-04-07T05:12:48.863Z,8.30
2017-04-07T05:13:55.703Z,8.20
2017-04-07T05:15:02.957Z,8.20
2017-04-07T05:16:09.141Z,8.30
2017-04-07T05:17:15.005Z,8.30
2017-04-07T05:26:51.882Z,8.30
2017-04-07T05:27:57.673Z,8.20
2017-04-07T05:29:04.661Z,8.20
2017-04-07T05:30:10.848Z,8.20
2017-04-07T05:31:17.400Z,8.20
2017-04-07T05:32:23.402Z,8.20
2017-04-07T05:33:30.180Z,8.20
2017-04-07T05:34:36.906Z,8.20
2017-04-07T05:35:43.804Z,8.30
2017-04-07T05:36:49.792Z,8.30
2017-04-07T05:38:01.667Z,8.30
2017-04-07T05:39:15.510Z,8.30
2017-04-07T05:40:25.635Z,8.30
2017-04-07T05:41:40.690Z,8.30
2017-04-07T05:42:56.356Z,8.30
2017-04-07T05:44:03.123Z,8.30
2017-04-07T05:45:09.189Z,8.30
2017-04-07T05:46:15.372Z,8.30
2017-04-07T05:47:21.344Z,8.30
2017-04-07T05:48:27.417Z,8.30
2017-04-07T05:49:33.469Z,8.30
2017-04-07T05:50:39.408Z,8.30
2017-04-07T05:51:46.621Z,8.30
2017-04-07T05:52:52.605Z,8.30
2017-04-07T05:53:59.099Z,8.30
2017-04-07T05:55:05.182Z,8.30
2017-04-07T05:56:12.961Z,8.30
2017-04-07T05:57:19.184Z,8.30
2017-04-07T05:58:25.822Z,8.30
2017-04-07T05:59:32.260Z,8.30
2017-04-07T06:00:38.344Z,8.30
2017-04-07T06:01:45.120Z,8.40
2017-04-07T06:02:51.261Z,8.40
2017-04-07T06:03:57.144Z,8.40
2017-04-07T06:05:03.375Z,8.40
2017-04-07T06:06:10.038Z,8.40
2017-04-07T06:07:16.241Z,8.40
2017-04-07T06:08:22.194Z,8.40
2017-04-07T06:09:28.146Z,8.40
2017-04-07T06:10:34.197Z,8.40
2017-04-07T06:11:40.209Z,8.40
2017-04-07T06:12:46.216Z,8.40
2017-04-07T06:13:52.243Z,8.40
2017-04-07T06:15:00.120Z,8.40
2017-04-07T06:16:07.382Z,8.40
2017-04-07T06:17:14.304Z,8.40
2017-04-07T06:18:20.350Z,8.40
2017-04-07T06:19:27.475Z,8.40
2017-04-07T06:20:36.350Z,8.40
2017-04-07T06:21:43.201Z,8.40
2017-04-07T06:22:49.341Z,8.40
2017-04-07T06:23:55.760Z,8.40
2017-04-07T06:25:01.780Z,8.40
2017-04-07T06:26:07.727Z,8.40
2017-04-07T06:27:14.584Z,8.40
2017-04-07T06:28:20.573Z,8.40
2017-04-07T06:29:27.596Z,8.40
2017-04-07T06:30:33.660Z,8.50
2017-04-07T06:31:40.144Z,8.40
2017-04-07T06:32:46.358Z,8.50
2017-04-07T06:33:52.718Z,8.50
2017-04-07T06:34:59.183Z,8.50
2017-04-07T06:36:05.198Z,8.40
2017-04-07T06:37:11.281Z,8.50
2017-04-07T06:38:19.352Z,8.40
2017-04-07T06:39:25.629Z,8.50
2017-04-07T06:40:31.976Z,8.50
2017-04-07T06:41:39.538Z,8.50
2017-04-07T06:42:46.380Z,8.50
2017-04-07T06:43:53.514Z,8.50
2017-04-07T06:44:59.736Z,8.50
2017-04-07T06:46:06.382Z,8.50
2017-04-07T06:47:12.645Z,8.50
2017-04-07T06:48:18.778Z,8.50
2017-04-07T06:49:24.751Z,8.50
2017-04-07T06:50:30.900Z,8.50
2017-04-07T06:51:36.852Z,8.50
2017-04-07T06:52:42.967Z,8.50
2017-04-07T06:53:48.934Z,8.50
2017-04-07T06:54:54.921Z,8.50
2017-04-07T06:56:01.381Z,8.50
2017-04-07T06:57:07.383Z,8.50
2017-04-07T06:58:13.679Z,8.50
2017-04-07T06:59:19.697Z,8.50
2017-04-07T07:00:25.760Z,8.50
2017-04-07T07:01:31.928Z,8.50
2017-04-07T07:02:38.991Z,8.60
2017-04-07T07:03:45.040Z,8.60
2017-04-07T07:04:52.187Z,8.50
2017-04-07T07:05:58.373Z,8.60
2017-04-07T07:07:04.281Z,8.60
2017-04-07T07:09:16.588Z,8.60
2017-04-07T07:10:22.559Z,8.60
2017-04-07T07:11:29.838Z,8.60
2017-04-07T07:12:35.856Z,8.60
2017-04-07T07:13:41.876Z,8.60
2017-04-07T07:14:47.827Z,8.70
2017-04-07T07:15:54.255Z,8.70
2017-04-07T07:17:00.454Z,8.60
2017-04-07T07:18:06.693Z,8.60
2017-04-07T07:19:13.589Z,8.60
2017-04-07T07:20:19.539Z,8.60
2017-04-07T07:21:26.272Z,8.70
2017-04-07T07:22:32.393Z,8.60
2017-04-07T07:23:38.539Z,8.60
2017-04-07T07:24:44.745Z,8.60
2017-04-07T07:25:50.843Z,8.60
2017-04-07T07:26:57.864Z,8.60
2017-04-07T07:28:04.245Z,8.50
2017-04-07T07:29:10.217Z,8.60
2017-04-07T07:30:16.231Z,8.60
2017-04-07T07:31:22.352Z,8.50
2017-04-07T07:32:28.335Z,8.50
2017-04-07T07:33:35.276Z,8.50
2017-04-07T07:34:41.430Z,8.50
2017-04-07T07:35:47.463Z,8.50
2017-04-07T07:36:54.745Z,8.50
2017-04-07T07:38:00.728Z,8.40
2017-04-07T07:39:06.680Z,8.50
2017-04-07T07:40:13.533Z,8.50
2017-04-07T07:41:21.568Z,8.50
2017-04-07T07:42:28.308Z,8.50
2017-04-07T07:43:38.788Z,8.50
2017-04-07T07:44:45.104Z,8.50
2017-04-07T07:45:51.115Z,8.50
2017-04-07T07:46:57.289Z,8.50
2017-04-07T07:48:03.220Z,8.50
2017-04-07T07:49:10.239Z,8.50
2017-04-07T07:50:16.436Z,8.50
2017-04-07T07:51:22.830Z,8.50
2017-04-07T07:52:29.204Z,8.60
2017-04-07T07:53:36.273Z,8.60
2017-04-07T07:54:42.944Z,8.60
2017-04-07T07:55:49.994Z,8.60
2017-04-07T07:56:55.936Z,8.60
2017-04-07T07:58:02.040Z,8.70
2017-04-07T07:59:08.076Z,8.70
2017-04-07T08:00:14.374Z,8.60
2017-04-07T08:01:20.310Z,8.70
2017-04-07T08:02:26.477Z,8.70
2017-04-07T08:03:32.446Z,8.70
2017-04-07T08:04:39.437Z,8.80
2017-04-07T08:05:45.422Z,8.80
2017-04-07T08:06:52.917Z,8.70
2017-04-07T08:08:00.219Z,8.70
2017-04-07T08:10:13.428Z,8.80
2017-04-07T08:11:19.840Z,8.70
2017-04-07T08:12:26.772Z,8.70
2017-04-07T08:13:33.060Z,8.70
2017-04-07T08:14:39.660Z,8.70
2017-04-07T08:15:45.782Z,8.80
2017-04-07T08:16:52.604Z,8.80
2017-04-07T08:17:59.277Z,8.80
2017-04-07T08:19:05.219Z,8.90
2017-04-07T08:20:11.072Z,8.90
2017-04-07T08:21:18.744Z,8.90
2017-04-07T08:22:24.644Z,8.90
2017-04-07T08:23:31.553Z,9.00
2017-04-07T08:24:37.500Z,8.90
2017-04-07T08:25:43.698Z,9.00
2017-04-07T08:26:49.705Z,9.00
2017-04-07T08:27:55.671Z,9.00
2017-04-07T08:29:01.776Z,9.00
2017-04-07T08:30:08.608Z,9.00
2017-04-07T08:31:14.619Z,9.10
2017-04-07T08:32:21.286Z,9.10
2017-04-07T08:33:27.300Z,9.10
2017-04-07T08:34:33.940Z,9.10
2017-04-07T08:35:40.082Z,9.10
2017-04-07T08:36:47.441Z,9.10
2017-04-07T08:37:54.956Z,9.10
2017-04-07T08:39:01.668Z,9.10
2017-04-07T08:40:08.420Z,9.10
2017-04-07T08:41:14.652Z,9.10
2017-04-07T08:42:22.024Z,9.10
2017-04-07T08:43:28.608Z,9.10
2017-04-07T08:44:34.591Z,9.00
2017-04-07T08:45:40.684Z,9.00
2017-04-07T08:46:47.781Z,9.00
2017-04-07T08:47:53.888Z,9.00
2017-04-07T08:49:00.196Z,9.00
2017-04-07T08:50:06.982Z,9.00
2017-04-07T08:51:13.273Z,9.10
2017-04-07T08:52:20.048Z,9.10
2017-04-07T08:53:26.680Z,9.10
2017-04-07T08:54:33.556Z,9.10
2017-04-07T08:55:40.305Z,9.20
2017-04-07T08:56:46.481Z,9.20
2017-04-07T08:57:53.761Z,9.20
2017-04-07T08:59:00.004Z,9.30
2017-04-07T09:00:08.477Z,9.30
2017-04-07T09:01:15.439Z,9.30
2017-04-07T09:02:22.064Z,9.30
2017-04-07T09:03:28.071Z,9.30
2017-04-07T09:04:34.303Z,9.40
2017-04-07T09:05:41.079Z,9.30
2017-04-07T09:06:47.189Z,9.40
2017-04-07T09:07:53.308Z,9.40
2017-04-07T09:08:59.344Z,9.40
2017-04-07T09:10:05.509Z,9.40
2017-04-07T09:11:11.493Z,9.40
2017-04-07T09:12:18.176Z,9.40
2017-04-07T09:13:24.270Z,9.40
2017-04-07T09:14:30.969Z,9.40
2017-04-07T09:15:36.880Z,9.40
2017-04-07T09:16:42.964Z,9.50
2017-04-07T09:17:48.965Z,9.40
2017-04-07T09:18:55.021Z,9.40
2017-04-07T09:20:01.061Z,9.40
2017-04-07T09:21:07.108Z,9.50
2017-04-07T09:22:13.109Z,9.50
2017-04-07T09:23:19.189Z,9.50
2017-04-07T09:24:25.247Z,9.50
2017-04-07T09:25:31.277Z,9.50
2017-04-07T09:26:37.852Z,9.50
2017-04-07T09:27:43.757Z,9.50
2017-04-07T09:28:49.971Z,9.50
2017-04-07T09:29:56.936Z,9.50
2017-04-07T09:31:03.795Z,9.50
2017-04-07T09:32:09.954Z,9.50
2017-04-07T09:33:16.815Z,9.50
2017-04-07T09:34:22.872Z,9.50
2017-04-07T09:35:28.951Z,9.50
2017-04-07T09:36:35.786Z,9.50
2017-04-07T09:37:41.808Z,9.50
2017-04-07T09:38:47.818Z,9.60
2017-04-07T09:39:54.608Z,9.60
2017-04-07T09:41:00.668Z,9.50
2017-04-07T09:42:06.687Z,9.70
2017-04-07T09:43:13.012Z,9.70
2017-04-07T09:44:19.687Z,9.70
2017-04-07T09:45:25.735Z,9.80
2017-04-07T09:46:31.584Z,9.70
2017-04-07T09:47:37.708Z,9.60
2017-04-07T09:48:43.999Z,9.60
2017-04-07T09:49:50.000Z,9.60
2017-04-07T09:50:56.520Z,9.70
2017-04-07T09:52:02.508Z,9.60
2017-04-07T09:53:09.234Z,9.70
2017-04-07T09:54:15.421Z,9.80
2017-04-07T09:55:21.424Z,9.80
2017-04-07T09:56:27.515Z,9.80
2017-04-07T09:57:33.647Z,9.80
2017-04-07T09:58:39.771Z,9.80
2017-04-07T09:59:46.712Z,9.80
2017-04-07T10:00:52.746Z,10.00
2017-04-07T10:01:58.753Z,9.90
2017-04-07T10:03:04.730Z,9.70
2017-04-07T10:04:10.982Z,9.70
2017-04-07T10:05:17.081Z,9.70
2017-04-07T10:06:23.245Z,9.80
2017-04-07T10:07:29.957Z,9.80
2017-04-07T10:08:36.094Z,9.80
2017-04-07T10:09:42.385Z,9.70
2017-04-07T10:11:55.375Z,9.80
2017-04-07T10:13:02.390Z,9.90
2017-04-07T10:14:08.612Z,10.00
2017-04-07T10:15:14.598Z,10.00
2017-04-07T10:16:21.258Z,10.00
2017-04-07T10:17:27.467Z,10.10
2017-04-07T10:18:33.568Z,10.10
2017-04-07T10:19:39.542Z,10.20
2017-04-07T10:20:45.817Z,10.20
2017-04-07T10:21:51.847Z,10.20
2017-04-07T10:22:57.789Z,10.20
2017-04-07T10:24:03.653Z,10.20
2017-04-07T10:25:09.628Z,10.20
2017-04-07T10:26:15.549Z,10.30
2017-04-07T10:27:21.712Z,10.30
2017-04-07T10:28:27.717Z,10.40
2017-04-07T10:29:33.804Z,10.50
2017-04-07T10:30:39.945Z,10.40
2017-04-07T10:31:46.008Z,10.40
2017-04-07T10:32:51.993Z,10.40
2017-04-07T10:33:58.152Z,10.60
2017-04-07T10:35:04.146Z,10.40
2017-04-07T10:36:10.206Z,10.30
2017-04-07T10:37:16.108Z,10.40
2017-04-07T10:38:22.149Z,10.40
2017-04-07T10:39:28.128Z,10.50
2017-04-07T10:40:34.957Z,10.60
2017-04-07T10:41:41.303Z,10.70
2017-04-07T10:42:47.214Z,10.50
2017-04-07T10:43:53.489Z,10.50
2017-04-07T10:44:59.484Z,10.70
2017-04-07T10:46:05.424Z,10.70
2017-04-07T10:47:11.453Z,10.60
2017-04-07T10:48:17.436Z,10.60
2017-04-07T10:49:23.425Z,10.60
2017-04-07T10:50:29.350Z,10.60
2017-04-07T10:51:35.193Z,10.80
2017-04-07T10:53:47.464Z,10.70
2017-04-07T10:54:54.320Z,10.60
2017-04-07T10:56:00.914Z,10.50
2017-04-07T10:57:06.913Z,10.60
2017-04-07T10:58:12.923Z,10.60
2017-04-07T10:59:18.869Z,10.50
2017-04-07T11:00:24.945Z,10.60
2017-04-07T11:01:31.102Z,10.60
2017-04-07T11:02:37.120Z,10.70
2017-04-07T11:03:43.072Z,10.70
2017-04-07T11:04:48.997Z,10.50
2017-04-07T11:05:56.016Z,10.60
2017-04-07T11:07:01.935Z,10.60
2017-04-07T11:08:07.953Z,10.60
2017-04-07T11:10:20.007Z,10.70
2017-04-07T11:11:26.441Z,10.80
2017-04-07T11:12:32.406Z,10.80
2017-04-07T11:13:38.469Z,10.70
2017-04-07T11:14:44.453Z,10.70
2017-04-07T11:15:50.472Z,10.70
2017-04-07T11:16:56.699Z,10.70
2017-04-07T11:18:02.550Z,10.60
2017-04-07T11:19:09.372Z,10.60
2017-04-07T11:20:15.368Z,10.60
2017-04-07T11:21:21.407Z,10.60
2017-04-07T11:22:28.184Z,10.70
2017-04-07T11:23:34.132Z,10.90
2017-04-07T11:24:40.254Z,10.90
2017-04-07T11:25:46.558Z,10.90
2017-04-07T11:26:53.443Z,10.90
2017-04-07T11:27:59.695Z,10.90
2017-04-07T11:29:05.776Z,10.90
2017-04-07T11:30:11.877Z,10.90
2017-04-07T11:31:18.022Z,10.90
2017-04-07T11:32:24.168Z,10.90
2017-04-07T11:33:30.379Z,10.70
2017-04-07T11:34:37.568Z,10.90
2017-04-07T11:35:44.345Z,11.00
2017-04-07T11:36:51.328Z,11.00
2017-04-07T11:37:57.363Z,11.00
2017-04-07T11:39:03.533Z,11.00
2017-04-07T11:40:09.451Z,10.80
2017-04-07T11:41:16.252Z,11.00
2017-04-07T11:42:22.329Z,11.00
2017-04-07T11:43:28.321Z,11.10
2017-04-07T11:44:34.577Z,11.20
2017-04-07T11:45:41.501Z,11.20
2017-04-07T11:46:47.603Z,11.20
2017-04-07T11:47:55.405Z,11.20
2017-04-07T11:49:02.264Z,11.20
2017-04-07T11:50:08.376Z,11.20
2017-04-07T11:51:14.308Z,11.20
2017-04-07T11:52:20.996Z,11.30
2017-04-07T11:53:27.795Z,11.20
2017-04-07T11:54:34.004Z,11.20
2017-04-07T11:55:40.059Z,11.20
2017-04-07T11:56:46.220Z,11.20
2017-04-07T11:57:52.412Z,11.20
2017-04-07T11:58:58.839Z,11.10
2017-04-07T12:00:04.940Z,11.10
2017-04-07T12:01:11.060Z,11.10
2017-04-07T12:02:17.089Z,11.10
2017-04-07T12:03:23.400Z,11.20
2017-04-07T12:04:30.269Z,11.30
2017-04-07T12:05:37.796Z,11.20
2017-04-07T12:07:50.664Z,11.30
2017-04-07T12:08:57.573Z,11.30
2017-04-07T12:10:03.819Z,11.20
2017-04-07T12:11:10.451Z,11.20
2017-04-07T12:12:17.539Z,11.20
2017-04-07T12:13:24.956Z,11.10
2017-04-07T12:14:31.029Z,11.10
2017-04-07T12:15:37.129Z,11.10
2017-04-07T12:16:43.548Z,11.20
2017-04-07T12:17:49.649Z,11.30
2017-04-07T12:18:56.303Z,11.10
2017-04-07T12:20:02.410Z,11.10
2017-04-07T12:21:08.403Z,11.00
2017-04-07T12:22:14.613Z,11.00
2017-04-07T12:23:20.772Z,11.00
2017-04-07T12:24:27.032Z,11.00
2017-04-07T12:25:34.061Z,11.00
2017-04-07T12:26:41.411Z,10.90
2017-04-07T12:27:47.381Z,11.00
2017-04-07T12:28:55.188Z,11.00
2017-04-07T12:30:01.252Z,11.00
2017-04-07T12:31:07.260Z,10.90
2017-04-07T12:32:13.536Z,11.00
2017-04-07T12:33:19.556Z,11.00
2017-04-07T12:34:26.659Z,11.00
2017-04-07T12:35:32.652Z,11.00
2017-04-07T12:36:39.487Z,11.10
2017-04-07T12:37:45.325Z,11.20
2017-04-07T12:38:52.065Z,11.10
2017-04-07T12:39:58.109Z,11.00
2017-04-07T12:41:04.065Z,10.90
2017-04-07T12:42:10.338Z,11.00
2017-04-07T12:43:16.290Z,10.90
2017-04-07T12:44:22.225Z,11.00
2017-04-07T12:45:29.312Z,11.00
2017-04-07T12:47:42.582Z,11.20
2017-04-07T12:48:48.528Z,11.30
2017-04-07T12:49:54.681Z,11.30
2017-04-07T12:51:01.670Z,11.40
2017-04-07T12:52:07.913Z,11.30
2017-04-07T12:54:21.072Z,11.30
2017-04-07T12:55:27.528Z,11.20
2017-04-07T12:56:33.647Z,11.20
2017-04-07T12:57:39.840Z,11.20
2017-04-07T12:58:46.389Z,11.30
2017-04-07T12:59:53.636Z,11.40
2017-04-07T13:01:00.548Z,11.30
2017-04-07T13:02:06.542Z,11.40
2017-04-07T13:03:12.721Z,11.40
2017-04-07T13:04:18.819Z,11.40
2017-04-07T13:05:26.630Z,11.40
2017-04-07T13:06:33.429Z,11.40
2017-04-07T13:07:39.600Z,11.30
2017-04-07T13:08:46.625Z,11.40
2017-04-07T13:09:53.740Z,11.60
2017-04-07T13:12:06.129Z,11.60
2017-04-07T13:13:13.289Z,11.70
2017-04-07T13:14:19.441Z,11.90
2017-04-07T13:15:25.702Z,11.90
2017-04-07T13:16:31.960Z,11.70
2017-04-07T13:17:38.872Z,11.70
2017-04-07T13:18:46.582Z,11.60
2017-04-07T13:19:55.435Z,11.60
2017-04-07T13:21:02.244Z,11.60
2017-04-07T13:22:08.281Z,11.60
2017-04-07T13:23:14.552Z,11.60
2017-04-07T13:24:20.492Z,11.70
2017-04-07T13:25:27.097Z,11.80
2017-04-07T13:26:33.485Z,11.60
2017-04-07T13:27:39.523Z,11.70
2017-04-07T13:28:45.698Z,11.80
2017-04-07T13:29:52.921Z,11.90
2017-04-07T13:31:01.261Z,11.90
2017-04-07T13:32:07.767Z,11.90
2017-04-07T13:33:14.728Z,12.20
2017-04-07T13:34:22.394Z,12.20
2017-04-07T13:36:34.679Z,12.50
2017-04-07T13:37:40.837Z,12.50
2017-04-07T13:38:46.734Z,12.00
2017-04-07T13:39:55.164Z,11.80
2017-04-07T13:41:01.793Z,11.90
2017-04-07T13:42:08.833Z,11.70
2017-04-07T13:43:14.898Z,11.90
2017-04-07T13:44:20.872Z,11.80
2017-04-07T13:45:27.041Z,12.00
2017-04-07T13:46:36.300Z,11.80
2017-04-07T13:47:43.069Z,11.80
2017-04-07T13:48:49.439Z,11.80
2017-04-07T13:49:56.707Z,11.90
2017-04-07T13:51:02.957Z,11.80
2017-04-07T13:52:08.821Z,11.80
2017-04-07T13:53:14.943Z,11.60
2017-04-07T13:54:22.151Z,11.60
2017-04-07T13:55:29.108Z,11.70
2017-04-07T13:56:36.027Z,12.00
2017-04-07T13:57:42.425Z,12.10
2017-04-07T13:58:48.420Z,12.20
2017-04-07T13:59:54.648Z,12.10
2017-04-07T14:01:01.322Z,12.00
2017-04-07T14:02:08.624Z,11.80
2017-04-07T14:03:17.506Z,11.60
2017-04-07T14:04:23.705Z,11.80
2017-04-07T14:05:30.377Z,11.60
2017-04-07T14:06:41.039Z,11.60
2017-04-07T14:07:47.100Z,11.60
2017-04-07T14:08:53.241Z,11.50
2017-04-07T14:09:59.253Z,11.60
2017-04-07T14:11:06.604Z,11.50
2017-04-07T14:12:12.746Z,11.40
2017-04-07T14:13:18.795Z,11.40
2017-04-07T14:14:25.025Z,11.30
2017-04-07T14:15:31.673Z,11.50
2017-04-07T14:16:37.695Z,11.60
2017-04-07T14:17:43.683Z,11.70
2017-04-07T14:18:49.700Z,11.50
2017-04-07T14:19:55.779Z,11.50
2017-04-07T14:21:01.771Z,11.60
2017-04-07T14:22:07.780Z,11.60
2017-04-07T14:23:14.153Z,11.50
2017-04-07T14:25:27.621Z,11.70
2017-04-07T14:26:34.516Z,11.70
2017-04-07T14:27:41.515Z,11.60
2017-04-07T14:28:47.511Z,11.60
2017-04-07T14:29:53.618Z,11.70
2017-04-07T14:30:59.643Z,11.70
2017-04-07T14:32:06.448Z,11.90
2017-04-07T14:33:12.600Z,12.20
2017-04-07T14:34:18.520Z,12.20
2017-04-07T14:35:25.148Z,12.30
2017-04-07T14:36:31.328Z,12.40
2017-04-07T14:37:37.376Z,12.50
2017-04-07T14:38:43.452Z,12.60
2017-04-07T14:39:49.405Z,12.60
2017-04-07T14:40:55.720Z,12.10
2017-04-07T14:42:01.635Z,12.20
2017-04-07T14:43:07.656Z,12.30
2017-04-07T14:44:14.080Z,12.40
2017-04-07T14:45:20.817Z,12.50
2017-04-07T14:46:26.841Z,12.60
2017-04-07T14:47:32.908Z,12.80
2017-04-07T14:48:38.877Z,12.80
2017-04-07T14:49:45.617Z,12.60
2017-04-07T14:50:51.943Z,12.80
2017-04-07T14:51:58.849Z,12.90
2017-04-07T14:53:04.835Z,12.90
2017-04-07T14:54:10.848Z,13.10
2017-04-07T14:55:16.908Z,13.10
2017-04-07T14:56:22.913Z,12.90
2017-04-07T14:57:29.624Z,13.00
2017-04-07T14:58:35.805Z,12.80
2017-04-07T14:59:42.800Z,12.70
2017-04-07T15:00:49.216Z,12.80
2017-04-07T15:01:55.425Z,13.00
2017-04-07T15:03:01.456Z,12.80
2017-04-07T15:04:07.572Z,12.70
2017-04-07T15:05:14.060Z,12.50
2017-04-07T15:06:20.985Z,12.30